Time;durP1;ratioP1;P1;durP2;ratioP2;P2;SDS_P1;SDS_P2;PMS_P1;PMS_P2;Temp;Humidity;BMP_temperature;BMP_pressure;BME280_temperature;BME280_humidity;BME280_pressure;Samples;Min_cycle;Max_cycle;Signal;HPM_P1;HPM_P2
2022/12/10 00:01:48;;;;;;;12.75;8.27;;;;;;;;;;5015240;28;20029;-70
2022/12/10 00:04:13;;;;;;;23.33;10.75;;;;;;;;;;5015371;28;20061;-70
2022/12/10 00:06:40;;;;;;;15.15;8.00;;;;;;;;;;5015138;28;20126;-70
2022/12/10 00:09:08;;;;;;;9.35;6.15;;;;;;;;;;5014856;28;20477;-70
2022/12/10 00:11:34;;;;;;;9.80;5.95;;;;;;;;;;5015094;28;20033;-70
2022/12/10 00:13:59;;;;;;;11.77;7.78;;;;;;;;;;5015106;28;20084;-70
2022/12/10 00:16:27;;;;;;;14.20;8.82;;;;;;;;;;5014925;28;20040;-70
2022/12/10 00:18:53;;;;;;;12.35;6.78;;;;;;;;;;5014936;28;20030;-70
2022/12/10 00:21:27;;;;;;;10.65;6.15;;;;;;;;;;5014798;28;20471;-70
2022/12/10 00:23:53;;;;;;;10.25;5.65;;;;;;;;;;5014626;28;20026;-70
2022/12/10 00:26:24;;;;;;;11.25;6.05;;;;;;;;;;5014665;28;20042;-71
2022/12/10 00:28:51;;;;;;;9.30;5.60;;;;;;;;;;5013813;28;20038;-68
2022/12/10 00:31:17;;;;;;;12.93;7.22;;;;;;;;;;5014722;28;20061;-68
2022/12/10 00:33:44;;;;;;;9.23;5.43;;;;;;;;;;5014786;28;20431;-68
2022/12/10 00:36:18;;;;;;;9.07;6.05;;;;;;;;;;5014611;28;20030;-68
2022/12/10 00:38:44;;;;;;;16.60;7.93;;;;;;;;;;5014621;28;20033;-68
2022/12/10 00:41:11;;;;;;;9.77;6.25;;;;;;;;;;5014458;28;20030;-68
2022/12/10 00:43:37;;;;;;;10.38;5.57;;;;;;;;;;5014480;28;20050;-68
2022/12/10 00:46:02;;;;;;;9.75;5.63;;;;;;;;;;5014502;28;20107;-68
2022/12/10 00:48:28;;;;;;;11.70;7.28;;;;;;;;;;5014699;28;20030;-68
2022/12/10 00:51:09;;;;;;;11.40;6.40;;;;;;;;;;5014465;28;20022;-68
2022/12/10 00:53:35;;;;;;;9.75;5.85;;;;;;;;;;5014217;28;20468;-68
2022/12/10 00:56:03;;;;;;;10.02;6.32;;;;;;;;;;5012975;28;20045;-68
2022/12/10 00:58:30;;;;;;;10.90;5.53;;;;;;;;;;5014202;28;20053;-68
2022/12/10 01:01:23;;;;;;;9.07;5.53;;;;;;;;;;5014210;28;20021;-68
2022/12/10 01:03:50;;;;;;;11.30;7.03;;;;;;;;;;4996805;28;20053;-68
2022/12/10 01:06:19;;;;;;;12.38;6.63;;;;;;;;;;4993960;28;20474;-68
2022/12/10 01:08:45;;;;;;;10.27;5.70;;;;;;;;;;4993941;28;20031;-68
2022/12/10 01:11:13;;;;;;;9.35;5.95;;;;;;;;;;4993895;28;20022;-68
2022/12/10 01:13:38;;;;;;;10.05;6.13;;;;;;;;;;4993812;28;20025;-68
2022/12/10 01:16:06;;;;;;;10.65;6.32;;;;;;;;;;4993875;28;20023;-68
2022/12/10 01:18:31;;;;;;;10.60;6.18;;;;;;;;;;4993713;28;20397;-68
2022/12/10 01:21:05;;;;;;;9.60;5.68;;;;;;;;;;4992779;28;20033;-68
2022/12/10 01:23:32;;;;;;;9.45;5.50;;;;;;;;;;4990748;28;20037;-68
2022/12/10 01:26:07;;;;;;;10.20;6.32;;;;;;;;;;4992593;28;20053;-68
2022/12/10 01:28:34;;;;;;;7.03;4.18;;;;;;;;;;4992565;28;20062;-68
2022/12/10 01:31:05;;;;;;;8.27;4.82;;;;;;;;;;4992680;28;20014;-68
2022/12/10 01:33:31;;;;;;;6.20;4.35;;;;;;;;;;4990463;28;20034;-68
2022/12/10 01:36:05;;;;;;;7.15;4.57;;;;;;;;;;4992086;28;20037;-68
2022/12/10 01:38:31;;;;;;;7.10;4.18;;;;;;;;;;4990500;28;20029;-68
2022/12/10 01:40:56;;;;;;;7.10;3.60;;;;;;;;;;4992409;28;20022;-68
2022/12/10 01:43:22;;;;;;;12.27;6.63;;;;;;;;;;4992312;28;20171;-68
2022/12/10 01:45:47;;;;;;;9.52;6.25;;;;;;;;;;4992259;28;20109;-68
2022/12/10 01:48:13;;;;;;;9.43;5.55;;;;;;;;;;4992291;28;20462;-68
2022/12/10 01:50:38;;;;;;;9.80;5.15;;;;;;;;;;4992297;28;20033;-68
2022/12/10 01:53:04;;;;;;;9.20;5.28;;;;;;;;;;4992240;28;20069;-68
2022/12/10 01:55:41;;;;;;;7.15;4.85;;;;;;;;;;4992065;28;20030;-68
2022/12/10 01:58:07;;;;;;;7.80;4.85;;;;;;;;;;4992355;28;20030;-68
2022/12/10 02:00:36;;;;;;;9.10;4.68;;;;;;;;;;4992089;28;20025;-68
2022/12/10 02:03:15;;;;;;;9.70;5.90;;;;;;;;;;4992162;28;20026;-68
2022/12/10 02:05:51;;;;;;;8.90;5.35;;;;;;;;;;4989547;28;20729;-68
2022/12/10 02:08:27;;;;;;;10.43;5.38;;;;;;;;;;4990587;28;20034;-68
2022/12/10 02:10:56;;;;;;;9.02;5.50;;;;;;;;;;4989966;28;20355;-68
2022/12/10 02:13:38;;;;;;;8.95;4.80;;;;;;;;;;4990711;28;20065;-68
2022/12/10 02:16:37;;;;;;;8.00;5.20;;;;;;;;;;4991130;28;20057;-68
2022/12/10 02:19:21;;;;;;;10.90;4.68;;;;;;;;;;4990727;28;20038;-68
2022/12/10 02:21:50;;;;;;;10.10;5.05;;;;;;;;;;4991625;28;20045;-68
2022/12/10 02:24:21;;;;;;;11.73;5.82;;;;;;;;;;4991782;28;20032;-68
2022/12/10 02:26:58;;;;;;;9.10;5.47;;;;;;;;;;4991677;28;20061;-68
2022/12/10 02:29:26;;;;;;;9.48;4.82;;;;;;;;;;4993817;28;20130;-68
2022/12/10 02:32:12;;;;;;;8.15;4.90;;;;;;;;;;4991703;28;20022;-68
2022/12/10 02:34:42;;;;;;;8.70;4.70;;;;;;;;;;4990152;28;20049;-69
2022/12/10 02:37:16;;;;;;;8.80;4.72;;;;;;;;;;4990237;28;20120;-68
2022/12/10 02:39:45;;;;;;;8.45;4.72;;;;;;;;;;4991534;28;20078;-68
2022/12/10 02:42:12;;;;;;;8.30;4.88;;;;;;;;;;4989236;28;20037;-68
2022/12/10 02:44:42;;;;;;;7.57;4.70;;;;;;;;;;4991583;28;20477;-68
2022/12/10 02:47:08;;;;;;;13.60;5.63;;;;;;;;;;4991370;28;20112;-68
2022/12/10 02:49:35;;;;;;;11.32;5.10;;;;;;;;;;4991506;28;20049;-68
2022/12/10 02:52:12;;;;;;;8.82;5.18;;;;;;;;;;4991042;28;20541;-68
2022/12/10 02:54:39;;;;;;;44.72;7.93;;;;;;;;;;4989986;28;20014;-68
2022/12/10 02:57:25;;;;;;;18.95;5.90;;;;;;;;;;4991209;28;20157;-68
2022/12/10 03:00:06;;;;;;;11.93;5.25;;;;;;;;;;4988957;28;20286;-68
2022/12/10 03:02:40;;;;;;;9.38;4.88;;;;;;;;;;4988793;28;20508;-68
2022/12/10 03:05:15;;;;;;;8.60;5.45;;;;;;;;;;4991174;28;20095;-68
2022/12/10 03:07:40;;;;;;;9.35;5.53;;;;;;;;;;4990043;28;20504;-68
2022/12/10 03:10:41;;;;;;;8.82;5.10;;;;;;;;;;4989976;28;20022;-68
2022/12/10 03:13:09;;;;;;;7.53;5.28;;;;;;;;;;4992602;28;20382;-68
2022/12/10 03:15:38;;;;;;;9.88;5.82;;;;;;;;;;4992496;28;20083;-68
2022/12/10 03:18:06;;;;;;;11.32;5.80;;;;;;;;;;4992488;28;20386;-68
2022/12/10 03:20:33;;;;;;;10.40;5.70;;;;;;;;;;4992549;28;20033;-68
2022/12/10 03:23:01;;;;;;;9.27;5.72;;;;;;;;;;4992563;28;20386;-68
2022/12/10 03:25:30;;;;;;;8.70;5.07;;;;;;;;;;4992336;28;20077;-68
2022/12/10 03:27:58;;;;;;;12.63;5.80;;;;;;;;;;4998791;28;20408;-68
2022/12/10 03:30:24;;;;;;;9.35;5.55;;;;;;;;;;5012070;28;20037;-68
2022/12/10 03:32:51;;;;;;;10.07;5.90;;;;;;;;;;5012003;28;20022;-68
2022/12/10 03:35:19;;;;;;;9.55;6.03;;;;;;;;;;5012083;28;20425;-68
2022/12/10 03:37:45;;;;;;;9.10;6.07;;;;;;;;;;5012034;28;20076;-68
2022/12/10 03:40:12;;;;;;;12.23;7.35;;;;;;;;;;5012060;28;20033;-68
2022/12/10 03:42:38;;;;;;;10.32;6.50;;;;;;;;;;5012140;28;20026;-68
2022/12/10 03:45:04;;;;;;;9.63;5.97;;;;;;;;;;5011904;28;20027;-68
2022/12/10 03:47:30;;;;;;;18.90;6.50;;;;;;;;;;5011739;28;20030;-67
2022/12/10 03:49:55;;;;;;;11.15;5.85;;;;;;;;;;5011824;28;20026;-68
2022/12/10 03:52:21;;;;;;;10.23;6.60;;;;;;;;;;5011822;28;20481;-67
2022/12/10 03:54:46;;;;;;;10.02;6.35;;;;;;;;;;5011873;28;20036;-67
2022/12/10 03:57:12;;;;;;;11.32;6.13;;;;;;;;;;5011573;28;20033;-67
2022/12/10 03:59:38;;;;;;;10.32;6.13;;;;;;;;;;5011758;28;20026;-68
2022/12/10 04:02:03;;;;;;;21.23;6.53;;;;;;;;;;5011485;28;20056;-67
2022/12/10 04:04:29;;;;;;;13.70;6.97;;;;;;;;;;5014075;28;20033;-67
2022/12/10 04:06:54;;;;;;;15.57;6.95;;;;;;;;;;5015304;28;20041;-68
2022/12/10 04:09:20;;;;;;;12.48;7.32;;;;;;;;;;5015149;28;20050;-67
2022/12/10 04:11:46;;;;;;;13.23;7.18;;;;;;;;;;5015088;28;20516;-68
2022/12/10 04:16:57;;;;;;;13.32;6.90;;;;;;;;;;5014896;28;20033;-68
2022/12/10 04:19:23;;;;;;;12.80;7.20;;;;;;;;;;5014683;28;20034;-68
2022/12/10 04:27:25;;;;;;;12.45;7.05;;;;;;;;;;5014645;28;20092;-67
2022/12/10 04:29:52;;;;;;;10.75;7.10;;;;;;;;;;5014795;28;20037;-68
2022/12/10 04:32:18;;;;;;;16.83;7.15;;;;;;;;;;5014751;28;20060;-70
2022/12/10 04:34:44;;;;;;;13.35;7.30;;;;;;;;;;5014833;28;20034;-67
2022/12/10 04:37:11;;;;;;;22.08;7.18;;;;;;;;;;5014319;28;20056;-68
2022/12/10 04:39:37;;;;;;;16.80;7.25;;;;;;;;;;5014749;28;20022;-68
2022/12/10 04:42:03;;;;;;;19.65;7.60;;;;;;;;;;5014557;28;20022;-69
2022/12/10 04:44:28;;;;;;;18.98;8.27;;;;;;;;;;5014369;28;20053;-68
2022/12/10 04:46:54;;;;;;;14.07;7.78;;;;;;;;;;5014576;28;20037;-68
2022/12/10 04:49:19;;;;;;;14.10;7.63;;;;;;;;;;5014334;28;20029;-68
2022/12/10 04:51:45;;;;;;;12.70;7.95;;;;;;;;;;5014385;28;20022;-68
2022/12/10 04:54:11;;;;;;;13.50;7.75;;;;;;;;;;5014383;28;20112;-68
2022/12/10 04:56:37;;;;;;;14.85;8.43;;;;;;;;;;5014376;28;20465;-68
2022/12/10 04:59:04;;;;;;;13.73;7.82;;;;;;;;;;5014142;28;20092;-68
2022/12/10 05:01:30;;;;;;;15.73;7.63;;;;;;;;;;5014009;28;20494;-68
2022/12/10 05:03:59;;;;;;;18.40;8.10;;;;;;;;;;5014117;28;20026;-68
2022/12/10 05:06:24;;;;;;;13.57;7.10;;;;;;;;;;5014129;28;20053;-68
2022/12/10 05:08:50;;;;;;;14.38;7.13;;;;;;;;;;5014071;28;20193;-68
2022/12/10 05:11:18;;;;;;;15.60;7.88;;;;;;;;;;5014138;28;20025;-68
2022/12/10 05:13:44;;;;;;;16.02;8.18;;;;;;;;;;5013563;28;20338;-68
2022/12/10 05:16:13;;;;;;;13.52;7.63;;;;;;;;;;5013748;28;20077;-68
2022/12/10 05:18:38;;;;;;;14.50;7.18;;;;;;;;;;5013886;28;20119;-68
2022/12/10 05:21:07;;;;;;;11.77;7.05;;;;;;;;;;5013782;28;20049;-68
2022/12/10 05:23:35;;;;;;;10.32;5.90;;;;;;;;;;5013766;28;20030;-68
2022/12/10 05:26:08;;;;;;;12.57;6.38;;;;;;;;;;5013588;28;20049;-68
2022/12/10 05:28:37;;;;;;;12.25;6.25;;;;;;;;;;5013436;28;20034;-68
2022/12/10 05:31:03;;;;;;;14.73;6.65;;;;;;;;;;5013646;28;20030;-68
2022/12/10 05:33:29;;;;;;;10.77;6.20;;;;;;;;;;5013657;28;20106;-68
2022/12/10 05:35:57;;;;;;;8.52;6.13;;;;;;;;;;5013394;28;20121;-68
2022/12/10 05:38:24;;;;;;;10.07;6.32;;;;;;;;;;5013595;28;20445;-68
2022/12/10 05:40:50;;;;;;;10.55;6.00;;;;;;;;;;5013654;28;20026;-69
2022/12/10 05:43:16;;;;;;;13.18;6.78;;;;;;;;;;5013247;28;20036;-69
2022/12/10 05:45:41;;;;;;;15.77;7.30;;;;;;;;;;5013325;28;20037;-69
2022/12/10 05:48:08;;;;;;;15.25;7.10;;;;;;;;;;5013345;28;20025;-69
2022/12/10 05:50:33;;;;;;;16.35;8.18;;;;;;;;;;5013386;28;20029;-69
2022/12/10 05:52:59;;;;;;;17.75;8.35;;;;;;;;;;5013154;28;20129;-69
2022/12/10 05:55:26;;;;;;;17.65;8.52;;;;;;;;;;5012851;28;20034;-69
2022/12/10 05:57:52;;;;;;;15.07;8.02;;;;;;;;;;5012888;28;20076;-69
2022/12/10 06:00:17;;;;;;;12.48;7.20;;;;;;;;;;5013233;28;20385;-69
2022/12/10 06:02:43;;;;;;;12.88;7.15;;;;;;;;;;5013287;28;20045;-69
2022/12/10 06:05:09;;;;;;;13.40;6.40;;;;;;;;;;5012971;28;20079;-69
2022/12/10 06:07:35;;;;;;;11.90;6.70;;;;;;;;;;5013182;28;20026;-69
2022/12/10 06:10:00;;;;;;;11.98;6.55;;;;;;;;;;5013029;28;20570;-69
2022/12/10 06:12:26;;;;;;;11.15;6.22;;;;;;;;;;5012587;28;20073;-69
2022/12/10 06:14:51;;;;;;;11.80;6.63;;;;;;;;;;5012918;28;20029;-69
2022/12/10 06:17:16;;;;;;;9.63;6.18;;;;;;;;;;5012496;28;20033;-69
2022/12/10 06:19:42;;;;;;;11.40;6.30;;;;;;;;;;5012725;28;20070;-69
2022/12/10 06:22:07;;;;;;;11.90;6.68;;;;;;;;;;5012873;28;20036;-69
2022/12/10 06:24:33;;;;;;;9.77;6.07;;;;;;;;;;5013149;28;20473;-69
2022/12/10 06:26:59;;;;;;;13.10;6.55;;;;;;;;;;5011687;28;20068;-69
2022/12/10 06:29:24;;;;;;;15.05;6.55;;;;;;;;;;5011254;28;20034;-69
2022/12/10 06:31:49;;;;;;;10.50;6.32;;;;;;;;;;5012560;28;20083;-69
2022/12/10 06:34:15;;;;;;;10.52;6.40;;;;;;;;;;5012641;28;20384;-69
2022/12/10 06:36:40;;;;;;;11.85;6.10;;;;;;;;;;5012390;28;20114;-69
2022/12/10 06:39:06;;;;;;;11.65;5.78;;;;;;;;;;5012541;28;20088;-69
2022/12/10 06:41:31;;;;;;;11.25;6.07;;;;;;;;;;5012338;28;20037;-69
2022/12/10 06:44:00;;;;;;;9.80;5.65;;;;;;;;;;5012532;28;20037;-69
2022/12/10 06:46:27;;;;;;;12.27;6.25;;;;;;;;;;5012548;28;20029;-69
2022/12/10 06:48:53;;;;;;;9.05;5.90;;;;;;;;;;5012431;28;20049;-69
2022/12/10 06:51:18;;;;;;;13.70;6.40;;;;;;;;;;5012426;28;20030;-69
2022/12/10 06:53:44;;;;;;;12.02;6.32;;;;;;;;;;5012468;28;20644;-69
2022/12/10 06:56:16;;;;;;;11.00;6.75;;;;;;;;;;5012143;28;20034;-69
2022/12/10 06:58:42;;;;;;;12.63;6.45;;;;;;;;;;5012349;28;20085;-69
2022/12/10 07:01:10;;;;;;;10.90;6.43;;;;;;;;;;5012411;28;20026;-69
2022/12/10 07:03:37;;;;;;;21.55;10.35;;;;;;;;;;5012364;28;20104;-68
2022/12/10 07:06:04;;;;;;;12.70;7.13;;;;;;;;;;5012174;28;20040;-69
2022/12/10 07:08:29;;;;;;;12.27;6.78;;;;;;;;;;5012320;28;20044;-68
2022/12/10 07:10:55;;;;;;;11.45;5.85;;;;;;;;;;5011947;28;20053;-68
2022/12/10 07:13:22;;;;;;;9.68;5.85;;;;;;;;;;5012279;28;20024;-69
2022/12/10 07:15:47;;;;;;;11.10;6.07;;;;;;;;;;5012089;28;20026;-68
2022/12/10 07:18:13;;;;;;;10.18;6.28;;;;;;;;;;5012249;28;20026;-68
2022/12/10 07:20:38;;;;;;;11.75;6.43;;;;;;;;;;5012174;28;20026;-69
2022/12/10 07:23:04;;;;;;;10.13;6.28;;;;;;;;;;5012204;28;20029;-68
2022/12/10 07:25:30;;;;;;;10.75;6.65;;;;;;;;;;5011517;28;20053;-69
2022/12/10 07:27:55;;;;;;;12.55;7.15;;;;;;;;;;5011737;28;20303;-69
2022/12/10 07:30:21;;;;;;;14.02;7.45;;;;;;;;;;5012159;28;20029;-69
2022/12/10 07:32:46;;;;;;;15.15;7.57;;;;;;;;;;5012058;28;20030;-69
2022/12/10 07:35:12;;;;;;;12.20;7.40;;;;;;;;;;5011887;28;20030;-69
2022/12/10 07:37:37;;;;;;;17.77;8.65;;;;;;;;;;5013265;28;20053;-69
2022/12/10 07:40:03;;;;;;;15.93;8.50;;;;;;;;;;5015533;28;20022;-69
2022/12/10 07:42:28;;;;;;;15.27;7.35;;;;;;;;;;5015860;28;20022;-69
2022/12/10 07:44:54;;;;;;;12.77;7.18;;;;;;;;;;5015697;28;20029;-69
2022/12/10 07:47:19;;;;;;;14.77;7.35;;;;;;;;;;5015221;28;20428;-69
2022/12/10 07:49:45;;;;;;;12.68;6.97;;;;;;;;;;5015463;28;20037;-69
2022/12/10 07:52:10;;;;;;;14.20;7.65;;;;;;;;;;5015543;28;20424;-69
2022/12/10 07:54:36;;;;;;;12.90;7.07;;;;;;;;;;5015332;28;20041;-69
2022/12/10 07:57:02;;;;;;;13.73;6.50;;;;;;;;;;5015203;28;20449;-69
2022/12/10 07:59:27;;;;;;;15.27;7.68;;;;;;;;;;5015512;28;20030;-69
2022/12/10 08:01:53;;;;;;;12.77;7.30;;;;;;;;;;5004834;28;20022;-69
2022/12/10 08:04:18;;;;;;;13.60;7.63;;;;;;;;;;4995722;28;20026;-69
2022/12/10 08:06:44;;;;;;;17.48;7.55;;;;;;;;;;4995794;28;20042;-68
2022/12/10 08:09:10;;;;;;;16.52;8.57;;;;;;;;;;4995352;28;20030;-70
2022/12/10 08:11:36;;;;;;;13.70;7.43;;;;;;;;;;4995631;28;20046;-68
2022/12/10 08:14:01;;;;;;;13.02;7.18;;;;;;;;;;4994882;28;20120;-68
2022/12/10 08:16:28;;;;;;;17.10;8.38;;;;;;;;;;4995518;28;20038;-68
2022/12/10 08:18:59;;;;;;;15.13;8.30;;;;;;;;;;4995312;28;20026;-68
2022/12/10 08:21:27;;;;;;;16.13;9.25;;;;;;;;;;4994021;28;20034;-69
2022/12/10 08:23:53;;;;;;;18.55;8.35;;;;;;;;;;4995243;28;20110;-69
2022/12/10 08:26:24;;;;;;;13.73;8.13;;;;;;;;;;4995083;28;20046;-69
2022/12/10 08:28:50;;;;;;;;;;;;;;;;;;5008099;28;20034;-69
2022/12/10 08:31:17;;;;;;;14.57;8.15;;;;;;;;;;5014924;28;19946;-69
2022/12/10 08:33:43;;;;;;;13.45;8.75;;;;;;;;;;5014887;28;20033;-70
2022/12/10 08:36:11;;;;;;;18.95;9.27;;;;;;;;;;5014281;28;20029;-68
2022/12/10 08:38:39;;;;;;;24.77;11.60;;;;;;;;;;5014790;28;20084;-69
2022/12/10 08:41:11;;;;;;;27.67;12.45;;;;;;;;;;5014709;28;20105;-69
2022/12/10 08:43:37;;;;;;;64.65;24.38;;;;;;;;;;5014514;28;20029;-70
2022/12/10 08:46:03;;;;;;;73.13;26.33;;;;;;;;;;5014235;28;20038;-70
2022/12/10 08:48:29;;;;;;;40.83;16.95;;;;;;;;;;5014154;28;20034;-69
2022/12/10 08:50:55;;;;;;;24.67;11.27;;;;;;;;;;5013974;28;20388;-68
2022/12/10 08:53:20;;;;;;;24.70;11.45;;;;;;;;;;5014344;28;20021;-69
2022/12/10 08:55:49;;;;;;;16.23;9.00;;;;;;;;;;5014174;28;20187;-70
2022/12/10 08:58:15;;;;;;;18.17;8.98;;;;;;;;;;5014212;28;20038;-69
2022/12/10 09:00:40;;;;;;;22.73;10.85;;;;;;;;;;5014392;28;20030;-70
2022/12/10 09:03:06;;;;;;;18.10;9.43;;;;;;;;;;5014200;28;20100;-69
2022/12/10 09:05:31;;;;;;;18.98;9.48;;;;;;;;;;5012329;28;20432;-70
2022/12/10 09:07:57;;;;;;;15.95;7.50;;;;;;;;;;5013961;28;20033;-70
2022/12/10 09:10:22;;;;;;;21.23;12.43;;;;;;;;;;5014068;28;20053;-70
2022/12/10 09:12:48;;;;;;;17.55;8.88;;;;;;;;;;5014103;28;20025;-69
2022/12/10 09:15:13;;;;;;;15.73;7.68;;;;;;;;;;5013709;28;20033;-69
2022/12/10 09:17:39;;;;;;;23.98;11.25;;;;;;;;;;5013899;28;20544;-69
2022/12/10 09:20:05;;;;;;;24.27;11.10;;;;;;;;;;5013695;28;20036;-69
2022/12/10 09:22:30;;;;;;;24.60;11.57;;;;;;;;;;5013751;28;20030;-69
2022/12/10 09:24:56;;;;;;;28.83;12.82;;;;;;;;;;5013604;28;20105;-69
2022/12/10 09:27:22;;;;;;;23.90;12.25;;;;;;;;;;5013450;28;20033;-69
2022/12/10 09:29:47;;;;;;;20.13;9.80;;;;;;;;;;5006306;28;20080;-69
2022/12/10 09:32:12;;;;;;;17.38;9.68;;;;;;;;;;4994060;28;20069;-69
2022/12/10 09:34:38;;;;;;;17.35;9.20;;;;;;;;;;4993869;28;20445;-69
2022/12/10 09:37:03;;;;;;;21.88;10.25;;;;;;;;;;4993829;28;20339;-69
2022/12/10 09:39:29;;;;;;;17.30;9.35;;;;;;;;;;4993894;28;20034;-69
2022/12/10 09:42:18;;;;;;;18.13;9.15;;;;;;;;;;4993810;28;20019;-69
2022/12/10 09:44:53;;;;;;;14.90;8.20;;;;;;;;;;4993712;28;20085;-69
2022/12/10 09:47:24;;;;;;;19.20;9.35;;;;;;;;;;4993670;28;20093;-69
2022/12/10 09:50:09;;;;;;;19.05;10.60;;;;;;;;;;4993469;28;20030;-69
2022/12/10 09:52:40;;;;;;;21.30;10.70;;;;;;;;;;4993809;28;20554;-69
2022/12/10 09:55:13;;;;;;;21.92;9.60;;;;;;;;;;4993675;28;20362;-69
2022/12/10 09:57:46;;;;;;;17.63;9.18;;;;;;;;;;4992348;28;20033;-69
2022/12/10 10:00:30;;;;;;;16.05;8.27;;;;;;;;;;4993501;28;20244;-69
2022/12/10 10:03:01;;;;;;;15.18;8.13;;;;;;;;;;4993241;28;20022;-69
2022/12/10 10:05:41;;;;;;;18.92;9.60;;;;;;;;;;4992953;28;20446;-69
2022/12/10 10:08:32;;;;;;;18.40;10.52;;;;;;;;;;4993440;28;20387;-69
2022/12/10 10:10:59;;;;;;;16.08;7.90;;;;;;;;;;4993097;28;20045;-69
2022/12/10 10:13:38;;;;;;;19.10;8.77;;;;;;;;;;4993376;28;20563;-69
2022/12/10 10:16:15;;;;;;;18.42;8.65;;;;;;;;;;4993266;28;20034;-69
2022/12/10 10:18:46;;;;;;;18.42;9.70;;;;;;;;;;4993181;28;20219;-69
2022/12/10 10:21:32;;;;;;;;;;;;;;;;;;4992504;28;20031;-69
2022/12/10 10:23:58;;;;;;;13.82;7.32;;;;;;;;;;4993002;28;20008;-69
2022/12/10 10:26:26;;;;;;;15.07;8.30;;;;;;;;;;4992856;28;20416;-69
2022/12/10 10:29:06;;;;;;;23.60;11.32;;;;;;;;;;5005814;28;20176;-69
2022/12/10 10:31:34;;;;;;;17.38;9.13;;;;;;;;;;5012723;28;20037;-69
2022/12/10 10:34:02;;;;;;;22.23;9.80;;;;;;;;;;4994739;28;20115;-69
2022/12/10 10:36:31;;;;;;;15.57;9.13;;;;;;;;;;4992987;28;20038;-69
2022/12/10 10:39:06;;;;;;;20.10;9.77;;;;;;;;;;4993082;28;20088;-69
2022/12/10 10:41:39;;;;;;;18.98;10.27;;;;;;;;;;4992990;28;20026;-69
2022/12/10 10:44:11;;;;;;;18.77;9.48;;;;;;;;;;4992821;28;20047;-69
2022/12/10 10:46:39;;;;;;;18.77;10.60;;;;;;;;;;4992776;28;20057;-69
2022/12/10 10:49:23;;;;;;;18.25;9.55;;;;;;;;;;4992892;28;20026;-69
2022/12/10 10:51:48;;;;;;;12.88;7.13;;;;;;;;;;4992544;28;20092;-69
2022/12/10 10:54:36;;;;;;;18.83;9.95;;;;;;;;;;4992724;28;20038;-69
2022/12/10 10:57:05;;;;;;;21.42;9.40;;;;;;;;;;4992731;28;20050;-69
2022/12/10 10:59:36;;;;;;;19.27;10.77;;;;;;;;;;5005375;28;20033;-69
2022/12/10 11:02:16;;;;;;;21.88;11.43;;;;;;;;;;5012029;28;20022;-69
2022/12/10 11:04:58;;;;;;;19.13;9.73;;;;;;;;;;5012698;28;20022;-68
2022/12/10 11:07:34;;;;;;;14.27;7.88;;;;;;;;;;5012058;28;20041;-69
2022/12/10 11:10:00;;;;;;;19.30;9.38;;;;;;;;;;5012225;28;20041;-69
2022/12/10 11:12:36;;;;;;;19.00;9.93;;;;;;;;;;5013118;28;20026;-69
2022/12/10 11:15:24;;;;;;;17.58;10.02;;;;;;;;;;4998920;28;20033;-69
2022/12/10 11:17:52;;;;;;;22.70;10.77;;;;;;;;;;4996198;28;20022;-69
2022/12/10 11:20:33;;;;;;;12.05;6.47;;;;;;;;;;4996598;28;20026;-69
2022/12/10 11:23:10;;;;;;;16.60;9.05;;;;;;;;;;4996435;28;20032;-69
2022/12/10 11:26:03;;;;;;;16.30;8.15;;;;;;;;;;4996024;28;20062;-69
2022/12/10 11:28:43;;;;;;;18.50;7.65;;;;;;;;;;5007248;28;20587;-69
2022/12/10 11:31:20;;;;;;;36.38;13.38;;;;;;;;;;5015807;28;20036;-69
2022/12/10 11:34:21;;;;;;;19.98;9.23;;;;;;;;;;5015823;28;20083;-69
2022/12/10 11:37:08;;;;;;;15.75;8.43;;;;;;;;;;5014528;28;20030;-69
2022/12/10 11:40:04;;;;;;;21.20;9.88;;;;;;;;;;5015885;28;20105;-69
2022/12/10 11:42:46;;;;;;;13.43;7.53;;;;;;;;;;5015829;28;20053;-69
2022/12/10 11:45:35;;;;;;;16.10;8.45;;;;;;;;;;5015056;28;20485;-69
2022/12/10 11:48:20;;;;;;;17.90;7.95;;;;;;;;;;5004247;28;20048;-69
2022/12/10 11:50:59;;;;;;;14.75;8.40;;;;;;;;;;4996147;28;20041;-69
2022/12/10 11:53:35;;;;;;;17.08;7.93;;;;;;;;;;4995674;28;20033;-69
2022/12/10 11:56:42;;;;;;;18.80;9.05;;;;;;;;;;4995840;28;20418;-69
2022/12/10 11:59:10;;;;;;;16.20;8.23;;;;;;;;;;4995427;28;20049;-69
2022/12/10 12:01:54;;;;;;;20.48;8.27;;;;;;;;;;4995596;28;20153;-69
2022/12/10 12:04:20;;;;;;;15.65;8.57;;;;;;;;;;4995640;28;20026;-69
2022/12/10 12:06:51;;;;;;;16.02;8.68;;;;;;;;;;4995724;28;20498;-69
2022/12/10 12:09:35;;;;;;;17.25;8.77;;;;;;;;;;4995505;28;20061;-69
2022/12/10 12:12:01;;;;;;;19.13;8.95;;;;;;;;;;4994178;28;20030;-69
2022/12/10 12:14:40;;;;;;;19.45;9.80;;;;;;;;;;4995339;28;20097;-69
2022/12/10 12:17:30;;;;;;;19.17;10.60;;;;;;;;;;4994093;28;20389;-69
2022/12/10 12:20:04;;;;;;;14.75;8.07;;;;;;;;;;4995383;28;20023;-69
2022/12/10 12:22:35;;;;;;;17.23;8.68;;;;;;;;;;4995458;28;20038;-69
2022/12/10 12:25:19;;;;;;;32.35;21.90;;;;;;;;;;4993955;28;20057;-69
2022/12/10 12:28:10;;;;;;;18.13;11.05;;;;;;;;;;5000123;28;20444;-69
2022/12/10 12:30:36;;;;;;;16.42;9.63;;;;;;;;;;5014964;28;20030;-69
2022/12/10 12:33:28;;;;;;;15.18;8.57;;;;;;;;;;5015029;28;20030;-69
2022/12/10 12:36:10;;;;;;;15.27;7.18;;;;;;;;;;5014162;28;20038;-69
2022/12/10 12:38:48;;;;;;;12.82;6.90;;;;;;;;;;5014839;28;20509;-69
2022/12/10 12:41:31;;;;;;;16.88;5.85;;;;;;;;;;5014525;28;20022;-69
2022/12/10 12:44:21;;;;;;;9.65;5.68;;;;;;;;;;5014356;28;20093;-69
2022/12/10 12:46:48;;;;;;;9.75;5.28;;;;;;;;;;5014545;28;20063;-69
2022/12/10 12:49:33;;;;;;;11.25;5.43;;;;;;;;;;5014368;28;20088;-69
2022/12/10 12:51:59;;;;;;;12.98;5.25;;;;;;;;;;5014581;28;20026;-69
2022/12/10 12:54:24;;;;;;;11.63;4.78;;;;;;;;;;5014363;28;20061;-69
2022/12/10 12:57:11;;;;;;;10.73;6.10;;;;;;;;;;5014022;28;20501;-69
2022/12/10 13:00:11;;;;;;;13.30;6.97;;;;;;;;;;5014312;28;20044;-70
2022/12/10 13:02:43;;;;;;;33.08;12.93;;;;;;;;;;5014380;28;20025;-70
2022/12/10 13:05:28;;;;;;;10.70;5.20;;;;;;;;;;5014098;28;20034;-70
2022/12/10 13:08:15;;;;;;;15.05;8.70;;;;;;;;;;5012489;28;20029;-70
2022/12/10 13:10:59;;;;;;;10.05;4.72;;;;;;;;;;5014000;28;20052;-70
2022/12/10 13:13:32;;;;;;;9.73;4.63;;;;;;;;;;5013718;28;20078;-70
2022/12/10 13:16:38;;;;;;;12.40;7.75;;;;;;;;;;5013934;28;20117;-70
2022/12/10 13:19:18;;;;;;;24.15;12.90;;;;;;;;;;5013712;28;20416;-70
2022/12/10 13:22:01;;;;;;;17.17;10.82;;;;;;;;;;5013631;28;20022;-70
2022/12/10 13:24:43;;;;;;;12.95;6.38;;;;;;;;;;5013823;28;20037;-69
2022/12/10 13:27:14;;;;;;;21.45;8.25;;;;;;;;;;5013040;28;20514;-69
2022/12/10 13:29:45;;;;;;;12.93;5.28;;;;;;;;;;5013638;28;20057;-69
2022/12/10 13:32:18;;;;;;;11.77;7.05;;;;;;;;;;5013507;28;20022;-70
2022/12/10 13:34:44;;;;;;;10.32;5.18;;;;;;;;;;5013029;28;20022;-70
2022/12/10 13:37:13;;;;;;;18.73;7.85;;;;;;;;;;4993786;28;20126;-70
2022/12/10 13:40:15;;;;;;;22.33;8.73;;;;;;;;;;4994013;28;20489;-69
2022/12/10 13:45:32;;;;;;;21.48;12.45;;;;;;;;;;4993944;28;20190;-69
2022/12/10 13:48:24;;;;;;;18.58;9.82;;;;;;;;;;4993441;28;20440;-69
2022/12/10 13:51:11;;;;;;;19.50;9.65;;;;;;;;;;4993809;28;20478;-70
2022/12/10 13:53:51;;;;;;;13.00;6.55;;;;;;;;;;4993624;28;20056;-70
2022/12/10 13:56:30;;;;;;;11.30;6.18;;;;;;;;;;4993320;28;20342;-69
2022/12/10 13:59:04;;;;;;;20.95;7.15;;;;;;;;;;4993593;28;20037;-69
2022/12/10 14:01:51;;;;;;;21.25;6.63;;;;;;;;;;4993562;28;20030;-70
2022/12/10 14:04:29;;;;;;;19.27;8.18;;;;;;;;;;4993669;28;20022;-69
2022/12/10 14:06:55;;;;;;;25.10;9.85;;;;;;;;;;4993453;28;20022;-69
2022/12/10 14:09:29;;;;;;;17.85;7.68;;;;;;;;;;4993360;28;20041;-68
2022/12/10 14:12:17;;;;;;;24.55;11.48;;;;;;;;;;4993216;28;20088;-68
2022/12/10 14:14:47;;;;;;;17.40;8.80;;;;;;;;;;4990244;28;20508;-69
2022/12/10 14:17:17;;;;;;;15.23;8.10;;;;;;;;;;4993209;28;20045;-70
2022/12/10 14:19:45;;;;;;;199.32;56.47;;;;;;;;;;4993138;28;20026;-70
2022/12/10 14:22:39;;;;;;;56.30;21.95;;;;;;;;;;4993135;28;20037;-70
2022/12/10 14:25:11;;;;;;;17.67;8.20;;;;;;;;;;4989881;28;20455;-70
2022/12/10 14:27:37;;;;;;;16.80;8.35;;;;;;;;;;4996919;28;20044;-70
2022/12/10 14:30:04;;;;;;;22.02;9.30;;;;;;;;;;5012600;28;20513;-69
2022/12/10 14:32:36;;;;;;;16.52;7.03;;;;;;;;;;5012858;28;20030;-70
2022/12/10 14:35:04;;;;;;;17.58;8.48;;;;;;;;;;5012737;28;20034;-70
2022/12/10 14:37:34;;;;;;;12.82;7.53;;;;;;;;;;5012436;28;20030;-71
2022/12/10 14:40:01;;;;;;;16.17;8.55;;;;;;;;;;5012242;28;20080;-73
2022/12/10 14:42:27;;;;;;;13.23;6.88;;;;;;;;;;5012415;28;20097;-70
2022/12/10 14:45:02;;;;;;;17.52;7.53;;;;;;;;;;5012119;28;20037;-69
2022/12/10 14:47:35;;;;;;;16.30;7.80;;;;;;;;;;5011650;28;20034;-69
2022/12/10 14:50:01;;;;;;;15.40;7.68;;;;;;;;;;5012571;28;20030;-70
2022/12/10 14:52:39;;;;;;;26.92;10.55;;;;;;;;;;5012450;28;20029;-70
2022/12/10 14:55:05;;;;;;;28.33;12.10;;;;;;;;;;5012217;28;20022;-71
2022/12/10 14:57:41;;;;;;;38.03;13.48;;;;;;;;;;5012271;28;20064;-70
2022/12/10 15:00:13;;;;;;;31.42;13.73;;;;;;;;;;5012339;28;20504;-70
2022/12/10 15:02:41;;;;;;;42.47;16.77;;;;;;;;;;5012222;28;20065;-70
2022/12/10 15:05:16;;;;;;;35.58;15.88;;;;;;;;;;5012148;28;20026;-69